createdAt,value
2023-06-10T00:02:31.779Z,17.50
2023-06-10T00:05:14.500Z,17.48
2023-06-10T00:08:34.484Z,17.40
2023-06-10T00:12:04.649Z,17.30
2023-06-10T00:15:53.922Z,17.22
2023-06-10T00:19:43.307Z,17.20
2023-06-10T00:23:15.726Z,17.10
2023-06-10T00:27:02.911Z,17.00
2023-06-10T00:30:52.092Z,17.00
2023-06-10T00:34:34.152Z,17.00
2023-06-10T00:38:19.480Z,17.00
2023-06-10T00:42:08.495Z,17.00
2023-06-10T00:45:45.933Z,17.00
2023-06-10T00:49:18.030Z,17.00
2023-06-10T00:52:49.686Z,16.92
2023-06-10T00:56:20.916Z,16.90
2023-06-10T00:59:53.172Z,16.90
2023-06-10T01:03:20.660Z,16.90
2023-06-10T01:06:40.652Z,17.00
2023-06-10T01:10:37.667Z,17.00
2023-06-10T01:13:52.523Z,17.00
2023-06-10T01:17:19.710Z,17.00
2023-06-10T01:20:20.117Z,17.00
2023-06-10T01:23:43.382Z,17.00
2023-06-10T01:26:46.091Z,17.00
2023-06-10T01:30:12.298Z,17.00
2023-06-10T01:33:13.707Z,17.00
2023-06-10T01:36:24.945Z,17.00
2023-06-10T01:40:02.400Z,17.00
2023-06-10T01:43:27.672Z,17.00
2023-06-10T01:46:41.450Z,17.00
2023-06-10T01:49:39.197Z,17.00
2023-06-10T01:52:42.704Z,17.00
2023-06-10T01:55:33.366Z,17.00
2023-06-10T01:59:08.545Z,17.00
2023-06-10T02:02:08.637Z,16.96
2023-06-10T02:05:38.480Z,16.90
2023-06-10T02:08:38.741Z,16.90
2023-06-10T02:11:14.478Z,16.90
2023-06-10T02:14:31.541Z,16.90
2023-06-10T02:17:45.958Z,16.90
2023-06-10T02:21:05.199Z,16.80
2023-06-10T02:24:29.966Z,16.80
2023-06-10T02:27:18.360Z,16.80
2023-06-10T02:30:20.782Z,16.70
2023-06-10T02:33:04.086Z,16.70
2023-06-10T02:36:02.694Z,16.70
2023-06-10T02:39:11.890Z,16.70
2023-06-10T02:42:40.226Z,16.70
2023-06-10T02:46:01.564Z,16.70
2023-06-10T02:49:09.972Z,16.70
2023-06-10T02:52:41.059Z,16.70
2023-06-10T02:55:46.911Z,16.70
2023-06-10T02:58:57.435Z,16.62
2023-06-10T03:01:55.315Z,16.66
2023-06-10T03:05:00.657Z,16.64
2023-06-10T03:08:39.324Z,16.60
2023-06-10T03:11:57.944Z,16.60
2023-06-10T03:15:18.760Z,16.60
2023-06-10T03:18:49.734Z,16.70
2023-06-10T03:22:31.783Z,16.70
2023-06-10T03:25:50.936Z,16.70
2023-06-10T03:29:18.203Z,16.72
2023-06-10T03:32:22.765Z,16.80
2023-06-10T03:35:36.299Z,16.80
2023-06-10T03:39:10.955Z,16.90
2023-06-10T03:43:00.201Z,16.90
2023-06-10T03:46:39.379Z,16.96
2023-06-10T03:49:54.783Z,16.90
2023-06-10T03:53:01.802Z,17.00
2023-06-10T03:56:29.723Z,17.00
2023-06-10T03:59:49.265Z,17.10
2023-06-10T04:03:11.094Z,17.10
2023-06-10T04:05:45.591Z,17.10
2023-06-10T04:08:51.248Z,17.20
2023-06-10T04:11:49.343Z,17.30
2023-06-10T04:15:03.374Z,17.30
2023-06-10T04:18:15.244Z,17.40
2023-06-10T04:21:29.624Z,17.40
2023-06-10T04:24:27.792Z,17.50
2023-06-10T04:27:22.529Z,17.50
2023-06-10T04:31:00.698Z,17.52
2023-06-10T04:34:33.296Z,17.50
2023-06-10T04:37:43.061Z,17.50
2023-06-10T04:40:58.002Z,17.60
2023-06-10T04:44:25.302Z,17.60
2023-06-10T04:47:36.404Z,17.50
2023-06-10T04:51:25.577Z,17.50
2023-06-10T04:54:47.142Z,17.48
2023-06-10T04:58:36.237Z,17.50
2023-06-10T05:01:50.886Z,17.50
2023-06-10T05:05:02.199Z,17.54
2023-06-10T05:08:24.533Z,17.60
2023-06-10T05:11:58.701Z,17.70
2023-06-10T05:15:07.094Z,17.72
2023-06-10T05:18:08.823Z,17.80
2023-06-10T05:20:40.782Z,17.90
2023-06-10T05:23:50.855Z,18.00
2023-06-10T05:26:32.890Z,18.00
2023-06-10T05:29:31.212Z,18.10
2023-06-10T05:32:16.618Z,18.10
2023-06-10T05:35:18.709Z,18.10
2023-06-10T05:38:07.632Z,18.10
2023-06-10T05:40:58.262Z,18.10
2023-06-10T05:43:41.148Z,18.10
2023-06-10T05:46:32.688Z,18.10
2023-06-10T05:49:21.570Z,18.10
2023-06-10T05:52:21.334Z,18.10
2023-06-10T05:55:39.688Z,18.10
2023-06-10T05:58:39.798Z,18.10
2023-06-10T06:01:34.115Z,18.20
2023-06-10T06:04:33.620Z,18.20
2023-06-10T06:07:44.289Z,18.22
2023-06-10T06:11:14.892Z,18.24
2023-06-10T06:14:49.265Z,18.30
2023-06-10T06:18:03.413Z,18.30
2023-06-10T06:21:36.098Z,18.36
2023-06-10T06:24:44.473Z,18.40
2023-06-10T06:28:14.313Z,18.50
2023-06-10T06:31:26.521Z,18.50
2023-06-10T06:34:55.611Z,18.60
2023-06-10T06:38:45.422Z,18.60
2023-06-10T06:42:22.308Z,18.78
2023-06-10T06:45:54.676Z,18.88
2023-06-10T06:49:06.424Z,18.96
2023-06-10T06:52:08.287Z,19.10
2023-06-10T06:55:20.339Z,19.10
2023-06-10T06:58:34.723Z,19.20
2023-06-10T07:01:37.270Z,19.20
2023-06-10T07:04:51.559Z,19.30
2023-06-10T07:08:19.198Z,19.38
2023-06-10T07:12:00.765Z,19.40
2023-06-10T07:15:52.450Z,19.50
2023-06-10T07:19:10.442Z,19.60
2023-06-10T07:22:51.027Z,19.80
2023-06-10T07:26:07.729Z,19.90
2023-06-10T07:29:39.326Z,20.02
2023-06-10T07:32:50.168Z,20.20
2023-06-10T07:36:11.037Z,20.38
2023-06-10T07:39:42.967Z,20.50
2023-06-10T07:42:56.077Z,20.60
2023-06-10T07:45:56.498Z,20.70
2023-06-10T07:49:14.597Z,20.80
2023-06-10T07:52:07.911Z,20.90
2023-06-10T07:55:01.778Z,21.00
2023-06-10T07:57:48.735Z,21.10
2023-06-10T08:00:54.144Z,21.20
2023-06-10T08:04:06.189Z,21.12
2023-06-10T08:07:23.363Z,21.20
2023-06-10T08:10:23.388Z,21.20
2023-06-10T08:13:10.076Z,21.30
2023-06-10T08:16:37.079Z,21.40
2023-06-10T08:19:31.944Z,21.50
2023-06-10T08:22:46.197Z,21.60
2023-06-10T08:25:34.488Z,21.70
2023-06-10T08:28:28.971Z,21.80
2023-06-10T08:31:22.929Z,21.90
2023-06-10T08:34:27.798Z,22.00
2023-06-10T08:37:18.064Z,22.10
2023-06-10T08:40:25.661Z,22.10
2023-06-10T08:43:54.632Z,22.20
2023-06-10T08:46:45.942Z,22.30
2023-06-10T08:49:57.772Z,22.40
2023-06-10T08:52:45.374Z,22.50
2023-06-10T08:55:32.960Z,22.60
2023-06-10T08:58:30.773Z,22.60
2023-06-10T09:01:28.575Z,22.70
2023-06-10T09:04:22.019Z,22.80
2023-06-10T09:07:19.856Z,23.00
2023-06-10T09:10:26.339Z,23.18
2023-06-10T09:13:45.919Z,23.28
2023-06-10T09:16:40.464Z,23.40
2023-06-10T09:19:32.465Z,23.50
2023-06-10T09:22:24.988Z,23.60
2023-06-10T09:25:21.433Z,23.70
2023-06-10T09:27:58.915Z,23.78
2023-06-10T09:30:48.045Z,23.80
2023-06-10T09:33:28.121Z,23.90
2023-06-10T09:36:02.900Z,24.08
2023-06-10T09:38:49.764Z,24.20
2023-06-10T09:41:50.338Z,23.90
2023-06-10T09:44:52.535Z,23.76
2023-06-10T09:47:52.104Z,23.70
2023-06-10T09:50:46.964Z,23.90
2023-06-10T09:53:19.425Z,23.80
2023-06-10T09:56:37.068Z,23.70
2023-06-10T09:59:20.585Z,23.60
2023-06-10T10:02:03.779Z,23.58
2023-06-10T10:04:41.708Z,23.70
2023-06-10T10:07:42.123Z,23.80
2023-06-10T10:10:35.105Z,23.98
2023-06-10T10:13:11.075Z,23.90
2023-06-10T10:15:46.444Z,24.10
2023-06-10T10:18:34.040Z,24.20
2023-06-10T10:22:14.132Z,24.20
2023-06-10T10:25:38.177Z,24.40
2023-06-10T10:28:35.095Z,24.70
2023-06-10T10:31:20.102Z,24.80
2023-06-10T10:34:03.230Z,24.90
2023-06-10T10:36:40.376Z,24.60
2023-06-10T10:39:22.238Z,24.24
2023-06-10T10:42:05.240Z,23.92
2023-06-10T10:44:46.329Z,23.60
2023-06-10T10:47:18.904Z,23.50
2023-06-10T10:50:00.776Z,23.40
2023-06-10T10:53:04.815Z,23.30
2023-06-10T10:55:35.759Z,23.12
2023-06-10T10:58:25.789Z,23.02
2023-06-10T11:01:14.490Z,23.00
2023-06-10T11:03:49.101Z,22.98
2023-06-10T11:06:53.028Z,22.90
2023-06-10T11:10:09.129Z,22.80
2023-06-10T11:12:54.560Z,22.70
2023-06-10T11:15:36.735Z,22.66
2023-06-10T11:18:23.937Z,22.56
2023-06-10T11:21:39.127Z,22.46
2023-06-10T11:24:39.370Z,22.30
2023-06-10T11:27:45.205Z,22.20
2023-06-10T11:30:37.114Z,22.02
2023-06-10T11:33:21.981Z,21.90
2023-06-10T11:36:12.098Z,21.76
2023-06-10T11:38:49.761Z,21.60
2023-06-10T11:41:49.162Z,21.42
2023-06-10T11:44:57.373Z,21.20
2023-06-10T11:48:40.336Z,21.00
2023-06-10T11:51:51.365Z,20.94
2023-06-10T11:54:46.798Z,20.80
2023-06-10T11:57:36.618Z,20.86
2023-06-10T12:00:18.370Z,20.80
2023-06-10T12:03:13.054Z,20.80
2023-06-10T12:06:55.322Z,20.70
2023-06-10T12:10:12.016Z,20.70
2023-06-10T12:13:47.826Z,20.70
2023-06-10T12:17:11.479Z,20.70
2023-06-10T12:20:13.390Z,20.80
2023-06-10T12:23:14.242Z,20.80
2023-06-10T12:27:03.212Z,20.80
2023-06-10T12:30:17.446Z,21.10
2023-06-10T12:33:20.074Z,21.40
2023-06-10T12:36:29.525Z,21.70
2023-06-10T12:39:25.184Z,21.90
2023-06-10T12:42:15.987Z,21.96
2023-06-10T12:44:58.179Z,22.00
2023-06-10T12:48:03.588Z,22.10
2023-06-10T12:50:58.418Z,22.40
2023-06-10T12:53:58.172Z,22.68
2023-06-10T12:56:42.258Z,22.84
2023-06-10T12:59:32.619Z,23.02
2023-06-10T13:02:14.938Z,23.10
2023-06-10T13:05:46.327Z,23.12
2023-06-10T13:08:48.726Z,23.10
2023-06-10T13:12:27.224Z,23.10
2023-06-10T13:15:34.028Z,23.28
2023-06-10T13:18:41.935Z,23.50
2023-06-10T13:21:29.258Z,23.70
2023-06-10T13:24:23.570Z,23.90
2023-06-10T13:26:58.387Z,24.20
2023-06-10T13:29:49.918Z,24.30
2023-06-10T13:32:27.509Z,24.52
2023-06-10T13:35:11.276Z,24.70
2023-06-10T13:38:03.157Z,24.70
2023-06-10T13:41:13.722Z,24.84
2023-06-10T13:43:49.802Z,24.90
2023-06-10T13:46:31.723Z,25.00
2023-06-10T13:49:03.016Z,25.02
2023-06-10T13:51:55.050Z,25.08
2023-06-10T13:54:28.943Z,25.12
2023-06-10T13:57:23.655Z,25.20
2023-06-10T14:00:15.418Z,25.30
2023-06-10T14:02:53.626Z,25.36
2023-06-10T14:05:42.907Z,25.40
2023-06-10T14:08:22.519Z,25.40
2023-06-10T14:11:06.407Z,25.40
2023-06-10T14:13:59.640Z,25.40
2023-06-10T14:16:51.371Z,25.46
2023-06-10T14:19:47.462Z,25.50
2023-06-10T14:22:37.857Z,25.62
2023-06-10T14:25:21.283Z,25.70
2023-06-10T14:27:49.881Z,25.74
2023-06-10T14:30:50.497Z,25.86
2023-06-10T14:33:35.061Z,25.90
2023-06-10T14:36:27.030Z,25.90
2023-06-10T14:39:01.568Z,25.90
2023-06-10T14:41:55.350Z,25.90
2023-06-10T14:44:29.711Z,25.90
2023-06-10T14:47:01.101Z,25.90
2023-06-10T14:49:48.374Z,25.92
2023-06-10T14:52:21.709Z,25.90
2023-06-10T14:55:15.341Z,25.90
2023-06-10T14:57:46.463Z,25.88
2023-06-10T15:00:35.051Z,25.90
2023-06-10T15:03:09.095Z,25.80
2023-06-10T15:06:10.005Z,25.80
2023-06-10T15:08:44.241Z,25.80
2023-06-10T15:11:34.676Z,25.86
2023-06-10T15:14:23.816Z,25.80
2023-06-10T15:17:01.263Z,25.70
2023-06-10T15:19:51.325Z,25.70
2023-06-10T15:23:00.168Z,25.36
2023-06-10T15:25:48.776Z,25.00
2023-06-10T15:28:33.297Z,24.60
2023-06-10T15:31:19.677Z,24.40
2023-06-10T15:34:14.178Z,24.14
2023-06-10T15:37:00.891Z,24.00
2023-06-10T15:39:52.402Z,23.80
2023-06-10T15:42:47.014Z,23.72
2023-06-10T15:45:38.399Z,23.44
2023-06-10T15:48:26.696Z,23.26
2023-06-10T15:51:21.108Z,23.10
2023-06-10T15:54:40.727Z,22.90
2023-06-10T15:57:47.259Z,22.82
2023-06-10T16:00:46.836Z,22.80
2023-06-10T16:04:01.321Z,22.70
2023-06-10T16:07:33.569Z,22.70
2023-06-10T16:11:02.685Z,22.64
2023-06-10T16:14:16.056Z,22.60
2023-06-10T16:17:35.500Z,22.54
2023-06-10T16:21:23.676Z,22.50
2023-06-10T16:24:22.955Z,22.50
2023-06-10T16:27:55.298Z,22.50
2023-06-10T16:30:59.023Z,22.42
2023-06-10T16:34:15.597Z,22.40
2023-06-10T16:37:46.257Z,22.40
2023-06-10T16:40:58.643Z,22.34
2023-06-10T16:44:10.610Z,22.30
2023-06-10T16:47:42.950Z,22.24
2023-06-10T16:51:12.233Z,22.20
2023-06-10T16:54:37.539Z,22.10
2023-06-10T16:57:49.862Z,22.00
2023-06-10T17:01:11.847Z,21.98
2023-06-10T17:04:15.483Z,21.90
2023-06-10T17:07:28.630Z,21.90
2023-06-10T17:10:57.530Z,21.80
2023-06-10T17:14:12.211Z,21.70
2023-06-10T17:18:02.742Z,21.66
2023-06-10T17:21:45.504Z,21.60
2023-06-10T17:25:14.624Z,21.50
2023-06-10T17:28:52.750Z,21.50
2023-06-10T17:32:13.590Z,21.40
2023-06-10T17:36:03.087Z,21.30
2023-06-10T17:39:52.184Z,21.30
2023-06-10T17:42:58.881Z,21.30
2023-06-10T17:46:35.616Z,21.20
2023-06-10T17:50:12.328Z,21.10
2023-06-10T17:53:43.658Z,21.00
2023-06-10T17:57:22.604Z,21.00
2023-06-10T18:00:38.894Z,20.90
2023-06-10T18:04:28.516Z,20.78
2023-06-10T18:07:21.532Z,20.70
2023-06-10T18:10:50.581Z,20.60
2023-06-10T18:14:14.938Z,20.50
2023-06-10T18:17:37.237Z,20.50
2023-06-10T18:21:25.357Z,20.32
2023-06-10T18:24:56.901Z,20.24
2023-06-10T18:27:59.999Z,20.10
2023-06-10T18:31:32.092Z,20.00
2023-06-10T18:35:21.411Z,19.90
2023-06-10T18:38:30.439Z,19.80
2023-06-10T18:42:01.765Z,19.70
2023-06-10T18:45:46.547Z,19.70
2023-06-10T18:49:14.240Z,19.60
2023-06-10T18:52:46.232Z,19.50
2023-06-10T18:56:24.265Z,19.50
2023-06-10T18:59:56.863Z,19.44
2023-06-10T19:03:27.997Z,19.40
2023-06-10T19:07:20.532Z,19.40
2023-06-10T19:10:51.950Z,19.30
2023-06-10T19:14:21.688Z,19.30
2023-06-10T19:17:36.286Z,19.30
2023-06-10T19:21:08.568Z,19.20
2023-06-10T19:24:46.536Z,19.20
2023-06-10T19:28:18.877Z,19.10
2023-06-10T19:31:40.428Z,19.10
2023-06-10T19:35:18.603Z,19.10
2023-06-10T19:39:08.299Z,19.00
2023-06-10T19:42:40.405Z,18.96
2023-06-10T19:46:29.602Z,18.90
2023-06-10T19:50:01.690Z,18.90
2023-06-10T19:53:36.333Z,18.90
2023-06-10T19:57:14.609Z,18.90
2023-06-10T20:00:47.087Z,18.88
2023-06-10T20:03:51.829Z,18.80
2023-06-10T20:07:18.896Z,18.82
2023-06-10T20:10:38.344Z,18.84
2023-06-10T20:14:20.287Z,18.84
2023-06-10T20:17:52.688Z,18.80
2023-06-10T20:21:41.854Z,18.80
2023-06-10T20:25:30.983Z,18.72
2023-06-10T20:29:11.510Z,18.70
2023-06-10T20:32:08.884Z,18.60
2023-06-10T20:35:30.399Z,18.50
2023-06-10T20:38:33.888Z,18.40
2023-06-10T20:42:23.253Z,18.40
2023-06-10T20:45:34.784Z,18.30
2023-06-10T20:48:33.605Z,18.30
2023-06-10T20:51:42.517Z,18.30
2023-06-10T20:54:30.607Z,18.30
2023-06-10T20:57:11.106Z,18.24
2023-06-10T21:00:15.071Z,18.20
2023-06-10T21:02:56.821Z,18.20
2023-06-10T21:05:31.534Z,18.20
2023-06-10T21:08:32.513Z,18.14
2023-06-10T21:11:23.509Z,18.10
2023-06-10T21:14:40.292Z,18.10
2023-06-10T21:17:14.821Z,18.10
2023-06-10T21:20:16.962Z,18.10
2023-06-10T21:23:17.359Z,18.10
2023-06-10T21:26:46.443Z,18.00
2023-06-10T21:29:49.008Z,17.96
2023-06-10T21:33:24.844Z,17.90
2023-06-10T21:37:02.321Z,17.86
2023-06-10T21:40:33.684Z,17.84
2023-06-10T21:43:54.321Z,17.90
2023-06-10T21:47:23.019Z,17.90
2023-06-10T21:51:12.024Z,17.90
2023-06-10T21:54:34.471Z,17.90
2023-06-10T21:58:12.762Z,17.90
2023-06-10T22:01:44.548Z,17.80
2023-06-10T22:04:51.264Z,17.80
2023-06-10T22:08:21.804Z,17.70
2023-06-10T22:12:02.180Z,17.60
2023-06-10T22:15:17.278Z,17.50
2023-06-10T22:18:59.678Z,17.50
2023-06-10T22:22:31.267Z,17.40
2023-06-10T22:26:09.221Z,17.36
2023-06-10T22:29:40.661Z,17.26
2023-06-10T22:33:13.211Z,17.06
2023-06-10T22:36:51.607Z,17.00
2023-06-10T22:40:29.725Z,16.90
2023-06-10T22:44:01.927Z,16.80
2023-06-10T22:47:15.994Z,16.70
2023-06-10T22:50:37.333Z,16.72
2023-06-10T22:53:36.811Z,16.70
2023-06-10T22:56:45.002Z,16.60
2023-06-10T23:00:12.950Z,16.60
2023-06-10T23:03:52.411Z,16.54
2023-06-10T23:07:06.246Z,16.50
2023-06-10T23:10:23.673Z,16.40
2023-06-10T23:13:27.993Z,16.38
2023-06-10T23:16:19.510Z,16.30
2023-06-10T23:18:51.254Z,16.34
2023-06-10T23:22:24.575Z,16.30
2023-06-10T23:25:26.482Z,16.10
2023-06-10T23:28:49.405Z,16.10
2023-06-10T23:32:28.107Z,16.10
2023-06-10T23:35:49.065Z,16.00
2023-06-10T23:38:55.706Z,15.90
2023-06-10T23:42:22.986Z,15.80
2023-06-10T23:45:49.987Z,15.70
2023-06-10T23:49:10.028Z,15.80
2023-06-10T23:52:59.219Z,15.72
2023-06-10T23:56:26.873Z,15.70
2023-06-10T23:59:17.138Z,15.70
